Time;durP1;ratioP1;P1;durP2;ratioP2;P2;SDS_P1;SDS_P2;PMS_P1;PMS_P2;Temp;Humidity;BMP_temperature;BMP_pressure;BME280_temperature;BME280_humidity;BME280_pressure;Samples;Min_cycle;Max_cycle;Signal;HPM_P1;HPM_P2
2021/07/23 00:02:11;;;;;;;13.15;10.77;;;18.30;96.40;;;;;;5050913;28;20029;-67
2021/07/23 00:04:37;;;;;;;14.80;11.50;;;18.20;96.90;;;;;;5051688;28;20056;-67
2021/07/23 00:07:02;;;;;;;15.82;10.77;;;18.20;97.40;;;;;;5051422;28;20371;-68
2021/07/23 00:09:28;;;;;;;12.75;10.48;;;18.20;98.10;;;;;;5050855;28;20052;-67
2021/07/23 00:11:54;;;;;;;14.30;10.98;;;18.10;98.30;;;;;;5051663;28;20371;-67
2021/07/23 00:14:19;;;;;;;12.63;10.60;;;18.00;98.70;;;;;;5050690;28;20029;-66
2021/07/23 00:16:45;;;;;;;13.23;10.60;;;18.00;99.20;;;;;;5051459;28;20044;-67
2021/07/23 00:19:11;;;;;;;13.27;10.90;;;17.90;99.60;;;;;;5050546;28;20047;-67
2021/07/23 00:21:36;;;;;;;15.45;11.05;;;17.90;99.90;;;;;;5051418;28;20162;-67
2021/07/23 00:24:02;;;;;;;14.07;11.05;;;17.90;99.90;;;;;;5051282;28;20446;-68
2021/07/23 00:26:28;;;;;;;12.95;10.52;;;17.80;99.90;;;;;;5050877;28;20037;-67
2021/07/23 00:28:53;;;;;;;14.40;11.18;;;17.80;99.90;;;;;;5051130;28;20136;-67
2021/07/23 00:31:19;;;;;;;13.65;10.05;;;17.80;99.90;;;;;;5050089;28;20032;-67
2021/07/23 00:33:44;;;;;;;16.55;11.32;;;17.70;99.90;;;;;;5051047;28;20052;-67
2021/07/23 00:36:10;;;;;;;13.77;10.80;;;17.70;99.90;;;;;;5050334;28;20103;-66
2021/07/23 00:38:36;;;;;;;18.10;11.68;;;17.60;99.90;;;;;;5050577;28;20056;-67
2021/07/23 00:41:01;;;;;;;12.68;10.48;;;17.60;99.90;;;;;;5050707;28;20028;-67
2021/07/23 00:43:28;;;;;;;14.82;10.85;;;17.50;99.90;;;;;;5050574;28;20480;-67
2021/07/23 00:45:54;;;;;;;15.50;11.27;;;17.50;99.90;;;;;;5051140;28;20052;-66
2021/07/23 00:48:20;;;;;;;14.18;11.13;;;17.50;99.90;;;;;;5050214;28;20036;-67
2021/07/23 00:50:47;;;;;;;16.17;10.63;;;17.50;99.90;;;;;;5050801;28;20060;-67
2021/07/23 00:53:14;;;;;;;16.50;11.70;;;17.50;99.90;;;;;;5049892;28;20399;-67
2021/07/23 00:55:42;;;;;;;16.10;11.15;;;17.40;99.90;;;;;;5048851;28;20419;-67
2021/07/23 00:58:09;;;;;;;17.92;10.90;;;17.40;99.90;;;;;;5050038;28;20040;-67
2021/07/23 01:00:39;;;;;;;16.60;11.60;;;17.30;99.90;;;;;;5050481;28;20027;-67
2021/07/23 01:03:04;;;;;;;15.63;10.65;;;17.30;99.90;;;;;;5050357;28;20025;-68
2021/07/23 01:05:30;;;;;;;14.77;11.52;;;17.30;99.90;;;;;;5050521;28;20540;-66
2021/07/23 01:07:57;;;;;;;14.13;11.52;;;17.30;99.90;;;;;;5050583;28;20458;-67
2021/07/23 01:10:22;;;;;;;13.35;10.98;;;17.30;99.90;;;;;;5049419;28;20029;-67
2021/07/23 01:12:49;;;;;;;13.30;10.52;;;17.20;99.90;;;;;;5050554;28;20036;-67
2021/07/23 01:15:14;;;;;;;15.48;10.70;;;17.20;99.90;;;;;;5049430;28;20111;-67
2021/07/23 01:17:41;;;;;;;15.00;11.07;;;17.20;99.90;;;;;;5048988;28;20455;-67
2021/07/23 01:20:10;;;;;;;14.07;11.10;;;17.20;99.90;;;;;;5049767;28;20041;-68
2021/07/23 01:22:40;;;;;;;15.45;11.07;;;17.20;99.90;;;;;;5050570;28;20057;-67
2021/07/23 01:25:07;;;;;;;19.65;11.93;;;17.20;99.90;;;;;;5050607;28;20372;-68
2021/07/23 01:27:39;;;;;;;15.90;10.90;;;17.20;99.90;;;;;;5050631;28;20086;-66
2021/07/23 01:30:09;;;;;;;14.02;11.02;;;17.20;99.90;;;;;;5049984;28;20037;-68
2021/07/23 01:32:36;;;;;;;15.63;10.57;;;17.10;99.90;;;;;;5050459;28;20029;-66
2021/07/23 01:35:03;;;;;;;17.60;11.90;;;17.20;99.90;;;;;;5050602;28;20037;-66
2021/07/23 01:37:30;;;;;;;13.75;10.13;;;17.20;99.90;;;;;;5049652;28;20039;-66
2021/07/23 01:39:57;;;;;;;17.05;10.48;;;17.20;99.90;;;;;;5050344;28;20044;-66
2021/07/23 01:42:23;;;;;;;14.05;10.98;;;17.20;99.90;;;;;;5049742;28;20033;-66
2021/07/23 01:44:48;;;;;;;14.13;10.82;;;17.20;99.90;;;;;;5049892;28;20021;-67
2021/07/23 01:47:14;;;;;;;15.82;11.52;;;17.20;99.90;;;;;;5049784;28;20052;-66
2021/07/23 01:49:40;;;;;;;14.23;10.10;;;17.10;99.90;;;;;;5051894;28;20029;-66
2021/07/23 01:52:05;;;;;;;17.65;10.95;;;17.20;99.90;;;;;;5053566;28;20028;-68
2021/07/23 01:54:31;;;;;;;14.48;10.50;;;17.10;99.90;;;;;;5053332;28;20049;-67
2021/07/23 01:56:57;;;;;;;15.73;11.43;;;17.10;99.90;;;;;;5054199;28;20494;-67
2021/07/23 01:59:22;;;;;;;13.88;11.23;;;17.10;99.90;;;;;;5053274;28;20151;-67
2021/07/23 02:01:48;;;;;;;12.90;10.13;;;17.10;99.90;;;;;;5053954;28;20021;-67
2021/07/23 02:04:13;;;;;;;15.48;11.23;;;17.10;99.90;;;;;;5053347;28;20033;-67
2021/07/23 02:06:39;;;;;;;14.23;11.45;;;17.10;99.90;;;;;;5053573;28;20486;-67
2021/07/23 02:09:04;;;;;;;18.63;10.77;;;17.10;99.90;;;;;;5055688;28;20033;-67
2021/07/23 02:11:31;;;;;;;15.95;11.80;;;17.10;99.90;;;;;;5072673;28;20154;-67
2021/07/23 02:13:57;;;;;;;14.10;10.52;;;17.00;99.90;;;;;;5065180;28;20111;-67
2021/07/23 02:16:24;;;;;;;13.60;10.18;;;17.00;99.90;;;;;;5053059;28;20085;-67
2021/07/23 02:18:50;;;;;;;15.02;11.20;;;17.00;99.90;;;;;;5053627;28;20037;-67
2021/07/23 02:21:16;;;;;;;14.25;10.60;;;17.00;99.90;;;;;;5052801;28;20024;-67
2021/07/23 02:23:42;;;;;;;15.43;11.02;;;17.00;99.90;;;;;;5054021;28;20055;-68
2021/07/23 02:26:21;;;;;;;16.65;11.98;;;16.90;99.90;;;;;;5053045;28;20067;-67
2021/07/23 02:28:48;;;;;;;15.37;10.50;;;16.90;99.90;;;;;;5053219;28;20493;-68
2021/07/23 02:31:13;;;;;;;15.30;11.00;;;16.90;99.90;;;;;;5052738;28;20466;-66
2021/07/23 02:33:39;;;;;;;15.80;10.00;;;16.90;99.90;;;;;;5053671;28;20078;-67
2021/07/23 02:36:05;;;;;;;18.90;11.93;;;16.80;99.90;;;;;;5053474;28;20116;-66
2021/07/23 02:38:31;;;;;;;16.17;11.20;;;16.80;99.90;;;;;;5050963;28;20118;-66
2021/07/23 02:40:57;;;;;;;14.05;10.13;;;16.80;99.90;;;;;;5053261;28;20068;-67
2021/07/23 02:43:23;;;;;;;13.30;10.55;;;16.70;99.90;;;;;;5052041;28;20029;-67
2021/07/23 02:45:49;;;;;;;13.30;10.45;;;16.70;99.90;;;;;;5053596;28;20078;-67
2021/07/23 02:48:15;;;;;;;14.75;11.00;;;16.70;99.90;;;;;;5052320;28;20029;-67
2021/07/23 02:50:40;;;;;;;15.13;11.50;;;16.60;99.90;;;;;;5053138;28;20481;-66
2021/07/23 02:53:06;;;;;;;15.40;10.68;;;16.60;99.90;;;;;;5052989;28;20033;-67
2021/07/23 02:55:32;;;;;;;15.65;10.95;;;16.60;99.90;;;;;;5051916;28;20045;-66
2021/07/23 02:57:58;;;;;;;14.65;11.45;;;16.50;99.90;;;;;;5052786;28;20059;-67
2021/07/23 03:00:24;;;;;;;12.88;10.02;;;16.50;99.90;;;;;;5051230;28;20470;-66
2021/07/23 03:02:49;;;;;;;15.73;11.10;;;16.50;99.90;;;;;;5052832;28;20116;-66
2021/07/23 03:05:15;;;;;;;13.77;11.02;;;16.40;99.90;;;;;;5051890;28;20029;-67
2021/07/23 03:07:41;;;;;;;15.40;11.27;;;16.40;99.90;;;;;;5052505;28;20025;-67
2021/07/23 03:10:07;;;;;;;13.00;9.93;;;16.40;99.90;;;;;;5052440;28;20032;-67
2021/07/23 03:12:36;;;;;;;14.20;10.88;;;16.40;99.90;;;;;;5052016;28;20036;-67
2021/07/23 03:15:03;;;;;;;18.20;11.50;;;16.30;99.90;;;;;;5052861;28;20148;-66
2021/07/23 03:17:29;;;;;;;15.82;11.30;;;16.30;99.90;;;;;;5052013;28;20029;-67
2021/07/23 03:19:54;;;;;;;14.95;10.52;;;16.30;99.90;;;;;;5052212;28;20419;-67
2021/07/23 03:22:20;;;;;;;13.43;10.23;;;16.20;99.90;;;;;;5052107;28;20039;-66
2021/07/23 03:24:46;;;;;;;13.88;11.02;;;16.20;99.90;;;;;;5050879;28;20037;-67
2021/07/23 03:27:11;;;;;;;14.43;10.82;;;16.20;99.90;;;;;;5051765;28;20037;-68
2021/07/23 03:29:38;;;;;;;17.88;11.23;;;16.20;99.90;;;;;;5052314;28;20346;-66
2021/07/23 03:32:04;;;;;;;17.42;11.48;;;16.10;99.90;;;;;;5052153;28;20025;-67
2021/07/23 03:34:30;;;;;;;14.02;10.98;;;16.10;99.90;;;;;;5048791;28;20100;-66
2021/07/23 03:36:56;;;;;;;16.52;11.55;;;16.10;99.90;;;;;;5051988;28;20112;-66
2021/07/23 03:39:21;;;;;;;16.75;11.40;;;16.10;99.90;;;;;;5051163;28;20040;-66
2021/07/23 03:41:47;;;;;;;15.32;11.25;;;16.00;99.90;;;;;;5051709;28;20093;-67
2021/07/23 03:44:13;;;;;;;20.75;10.65;;;16.00;99.90;;;;;;5051886;28;20029;-68
2021/07/23 03:46:38;;;;;;;15.00;11.65;;;16.00;99.90;;;;;;5050804;28;20146;-66
2021/07/23 03:49:04;;;;;;;16.70;10.98;;;15.90;99.90;;;;;;5052221;28;20033;-66
2021/07/23 03:51:29;;;;;;;19.65;12.43;;;15.90;99.90;;;;;;5051203;28;20135;-66
2021/07/23 03:53:55;;;;;;;17.92;11.80;;;15.90;99.90;;;;;;5051602;28;20100;-66
2021/07/23 03:56:21;;;;;;;13.70;11.30;;;15.90;99.90;;;;;;5050595;28;20053;-67
2021/07/23 03:58:46;;;;;;;15.98;12.10;;;15.90;99.90;;;;;;5051898;28;20025;-66
2021/07/23 04:01:12;;;;;;;18.90;11.80;;;15.90;99.90;;;;;;5051506;28;20093;-68
2021/07/23 04:03:38;;;;;;;18.60;12.32;;;15.80;99.90;;;;;;5051600;28;20149;-67
2021/07/23 04:06:03;;;;;;;16.67;11.98;;;15.90;99.90;;;;;;5052141;28;20025;-66
2021/07/23 04:08:29;;;;;;;18.60;11.50;;;15.90;99.90;;;;;;5051034;28;20025;-66
2021/07/23 04:10:58;;;;;;;16.40;12.18;;;15.80;99.90;;;;;;5051500;28;20035;-66
2021/07/23 04:13:23;;;;;;;18.00;12.30;;;15.80;99.90;;;;;;5049495;28;20104;-67
2021/07/23 04:15:49;;;;;;;16.63;11.48;;;15.80;99.90;;;;;;5051464;28;20116;-66
2021/07/23 04:18:16;;;;;;;14.63;11.07;;;15.80;99.90;;;;;;5050481;28;20114;-67
2021/07/23 04:20:42;;;;;;;15.32;11.95;;;15.80;99.90;;;;;;5051506;28;20039;-66
2021/07/23 04:23:08;;;;;;;17.40;11.38;;;15.90;99.90;;;;;;5051491;28;20029;-66
2021/07/23 04:25:33;;;;;;;17.52;11.95;;;15.90;99.90;;;;;;5050388;28;20453;-66
2021/07/23 04:27:59;;;;;;;15.85;11.88;;;15.80;99.90;;;;;;5051080;28;20040;-66
2021/07/23 04:30:25;;;;;;;17.00;12.27;;;15.90;99.90;;;;;;5049897;28;20029;-66
2021/07/23 04:32:51;;;;;;;17.55;11.95;;;15.90;99.90;;;;;;5050832;28;20056;-66
2021/07/23 04:35:16;;;;;;;17.02;12.00;;;16.00;99.90;;;;;;5050435;28;20025;-67
2021/07/23 04:37:42;;;;;;;18.17;12.07;;;16.00;99.90;;;;;;5050950;28;20029;-67
2021/07/23 04:40:09;;;;;;;16.63;11.82;;;16.10;99.90;;;;;;5051498;28;20061;-67
2021/07/23 04:42:34;;;;;;;19.98;12.32;;;16.10;99.90;;;;;;5050268;28;20021;-67
2021/07/23 04:45:03;;;;;;;17.20;11.45;;;16.20;99.90;;;;;;5050434;28;20528;-67
2021/07/23 04:47:28;;;;;;;16.35;12.00;;;16.30;99.90;;;;;;5049573;28;20049;-67
2021/07/23 04:49:54;;;;;;;17.00;11.57;;;16.30;99.90;;;;;;5050814;28;20068;-74
2021/07/23 04:52:19;;;;;;;17.02;11.82;;;16.40;99.90;;;;;;5049992;28;20033;-64
2021/07/23 04:54:45;;;;;;;15.85;11.35;;;16.50;99.90;;;;;;5050279;28;20413;-66
2021/07/23 04:57:14;;;;;;;14.98;10.93;;;16.60;99.90;;;;;;5050441;28;20103;-65
2021/07/23 04:59:40;;;;;;;16.45;12.15;;;16.70;99.90;;;;;;5049258;28;20041;-67
2021/07/23 05:02:05;;;;;;;16.73;12.02;;;16.80;99.90;;;;;;5050408;28;20025;-66
2021/07/23 05:04:34;;;;;;;18.58;12.10;;;16.90;99.90;;;;;;5049779;28;20036;-66
2021/07/23 05:07:00;;;;;;;15.10;11.10;;;17.00;99.90;;;;;;5051271;28;20033;-66
2021/07/23 05:09:25;;;;;;;16.45;11.93;;;17.10;99.90;;;;;;5049701;28;20037;-66
2021/07/23 05:11:51;;;;;;;14.68;11.77;;;17.20;99.90;;;;;;5050594;28;20053;-66
2021/07/23 05:14:17;;;;;;;17.15;11.70;;;17.30;99.90;;;;;;5049621;28;20124;-67
2021/07/23 05:16:43;;;;;;;18.70;12.75;;;17.40;99.90;;;;;;5049349;28;20037;-66
2021/07/23 05:19:11;;;;;;;17.55;12.80;;;17.60;99.90;;;;;;5050552;28;20055;-66
2021/07/23 05:21:37;;;;;;;18.98;11.82;;;17.70;99.90;;;;;;5047934;28;20439;-66
2021/07/23 05:24:04;;;;;;;19.55;12.00;;;17.90;99.90;;;;;;5051249;28;20035;-66
2021/07/23 05:26:38;;;;;;;15.75;12.00;;;18.00;99.90;;;;;;5054029;28;20036;-66
2021/07/23 05:29:05;;;;;;;21.73;12.98;;;18.20;99.90;;;;;;5046410;28;20029;-65
2021/07/23 05:31:31;;;;;;;18.17;12.48;;;18.40;99.90;;;;;;5053279;28;20052;-66
2021/07/23 05:34:01;;;;;;;22.08;13.30;;;18.50;99.90;;;;;;5053865;28;20064;-66
2021/07/23 05:36:28;;;;;;;21.27;14.10;;;18.60;99.90;;;;;;5053021;28;20112;-65
2021/07/23 05:38:54;;;;;;;20.15;14.07;;;18.70;99.90;;;;;;5049018;28;20032;-70
2021/07/23 05:41:20;;;;;;;20.20;14.15;;;18.80;99.90;;;;;;5053440;28;20057;-66
2021/07/23 05:43:46;;;;;;;18.17;12.98;;;18.90;99.90;;;;;;5053997;28;20029;-67
2021/07/23 05:46:12;;;;;;;24.45;14.25;;;18.80;99.90;;;;;;5054184;28;20105;-67
2021/07/23 05:48:39;;;;;;;18.42;14.77;;;18.90;99.90;;;;;;5053513;28;20028;-67
2021/07/23 05:51:06;;;;;;;25.30;15.00;;;19.00;99.90;;;;;;5053041;28;20405;-66
2021/07/23 05:53:32;;;;;;;20.58;14.23;;;19.00;99.90;;;;;;5053398;28;20060;-67
2021/07/23 05:55:59;;;;;;;21.42;13.70;;;19.00;99.90;;;;;;5054117;28;20250;-66
2021/07/23 05:58:28;;;;;;;24.13;15.63;;;19.00;99.90;;;;;;5053128;28;20033;-67
2021/07/23 06:00:55;;;;;;;21.63;15.53;;;19.00;99.90;;;;;;5053823;28;20525;-66
2021/07/23 06:03:21;;;;;;;22.20;15.48;;;19.10;99.90;;;;;;5044609;28;20686;-66
2021/07/23 06:05:46;;;;;;;30.02;15.95;;;19.10;99.90;;;;;;5053488;28;20025;-66
2021/07/23 06:08:12;;;;;;;23.50;15.80;;;19.10;99.90;;;;;;5053338;28;20039;-66
2021/07/23 06:10:38;;;;;;;25.60;16.08;;;19.20;99.90;;;;;;5052990;28;20029;-66
2021/07/23 06:13:03;;;;;;;24.95;16.90;;;19.20;99.90;;;;;;5053470;28;20078;-67
2021/07/23 06:15:29;;;;;;;21.85;15.13;;;19.30;99.90;;;;;;5052667;28;20108;-66
2021/07/23 06:17:55;;;;;;;22.10;13.93;;;19.40;99.90;;;;;;5052206;28;20043;-66
2021/07/23 06:20:21;;;;;;;20.80;14.52;;;19.40;99.90;;;;;;5052861;28;20025;-66
2021/07/23 06:22:47;;;;;;;23.52;15.13;;;19.40;99.90;;;;;;5053523;28;20017;-66
2021/07/23 06:25:13;;;;;;;21.13;15.10;;;19.50;99.90;;;;;;5053587;28;20489;-66
2021/07/23 06:27:39;;;;;;;24.27;14.70;;;19.60;99.90;;;;;;5053059;28;20044;-66
2021/07/23 06:30:05;;;;;;;22.20;16.27;;;19.70;99.90;;;;;;5053184;28;20096;-66
2021/07/23 06:32:32;;;;;;;21.48;15.32;;;19.80;99.90;;;;;;5052164;28;20033;-66
2021/07/23 06:34:58;;;;;;;23.55;14.57;;;19.90;99.90;;;;;;5052867;28;20065;-66
2021/07/23 06:37:25;;;;;;;19.92;14.70;;;20.00;99.90;;;;;;5051843;28;20099;-66
2021/07/23 06:39:51;;;;;;;25.77;15.20;;;20.00;99.90;;;;;;5053286;28;20083;-68
2021/07/23 06:42:18;;;;;;;22.67;15.90;;;20.10;99.70;;;;;;5051487;28;20079;-67
2021/07/23 06:44:43;;;;;;;24.10;15.77;;;20.20;99.30;;;;;;5053246;28;20039;-66
2021/07/23 06:47:09;;;;;;;22.92;13.82;;;20.30;98.70;;;;;;5053233;28;20025;-66
2021/07/23 06:49:35;;;;;;;18.35;13.18;;;20.40;98.30;;;;;;5052275;28;20074;-66
2021/07/23 06:52:02;;;;;;;18.38;13.68;;;20.50;97.60;;;;;;5052940;28;20025;-66
2021/07/23 06:54:28;;;;;;;19.67;13.35;;;20.50;97.40;;;;;;5051751;28;20045;-66
2021/07/23 06:56:53;;;;;;;25.23;15.63;;;20.60;97.40;;;;;;5053023;28;20067;-66
2021/07/23 06:59:19;;;;;;;20.52;13.98;;;20.80;97.10;;;;;;5051556;28;20032;-67
2021/07/23 07:01:45;;;;;;;21.83;16.00;;;20.80;97.20;;;;;;5052872;28;20029;-66
2021/07/23 07:04:10;;;;;;;20.88;15.38;;;20.90;97.40;;;;;;5052812;28;20029;-66
2021/07/23 07:06:36;;;;;;;23.15;15.63;;;20.90;97.00;;;;;;5052322;28;20029;-66
2021/07/23 07:09:02;;;;;;;21.23;15.40;;;21.00;96.60;;;;;;5052767;28;20351;-66
2021/07/23 07:11:28;;;;;;;19.17;14.10;;;21.00;96.80;;;;;;5051820;28;20029;-66
2021/07/23 07:13:54;;;;;;;17.33;13.55;;;21.00;97.10;;;;;;5051308;28;20383;-66
2021/07/23 07:16:20;;;;;;;25.58;16.90;;;21.00;97.20;;;;;;5051973;28;20050;-68
2021/07/23 07:18:45;;;;;;;28.25;15.30;;;21.20;96.70;;;;;;5052817;28;20029;-67
2021/07/23 07:21:13;;;;;;;18.77;14.43;;;21.30;96.10;;;;;;5052822;28;20021;-66
2021/07/23 07:23:39;;;;;;;25.38;15.40;;;21.40;95.90;;;;;;5052019;28;20025;-67
2021/07/23 07:26:07;;;;;;;25.55;16.63;;;21.40;95.70;;;;;;5052177;28;20056;-67
2021/07/23 07:28:33;;;;;;;22.20;15.52;;;21.60;94.70;;;;;;5051216;28;20040;-67
2021/07/23 07:30:58;;;;;;;28.17;16.63;;;21.60;94.70;;;;;;5052280;28;20025;-66
2021/07/23 07:33:24;;;;;;;31.42;17.33;;;21.60;94.60;;;;;;5051875;28;20097;-66
2021/07/23 07:35:50;;;;;;;25.23;15.13;;;21.70;94.60;;;;;;5051975;28;20127;-66
2021/07/23 07:38:17;;;;;;;28.10;16.95;;;21.70;94.30;;;;;;5051860;28;20127;-67
2021/07/23 07:40:43;;;;;;;23.52;16.35;;;21.90;94.00;;;;;;5051858;28;20037;-66
2021/07/23 07:43:09;;;;;;;21.77;14.70;;;21.90;93.50;;;;;;5051908;28;20109;-66
2021/07/23 07:45:36;;;;;;;27.85;17.33;;;21.90;93.60;;;;;;5051066;28;20029;-66
2021/07/23 07:48:05;;;;;;;19.98;15.23;;;22.00;92.90;;;;;;5052037;28;20370;-66
2021/07/23 07:50:32;;;;;;;24.60;15.43;;;22.20;92.50;;;;;;5051347;28;20090;-66
2021/07/23 07:52:58;;;;;;;24.35;16.25;;;22.30;92.50;;;;;;5051533;28;20375;-66
2021/07/23 07:55:23;;;;;;;24.92;15.75;;;22.30;92.10;;;;;;5051138;28;20049;-66
2021/07/23 07:57:49;;;;;;;26.80;15.52;;;22.40;91.30;;;;;;5051760;28;20385;-66
2021/07/23 08:00:15;;;;;;;24.45;16.00;;;22.50;91.00;;;;;;5051185;28;20029;-66
2021/07/23 08:02:42;;;;;;;25.80;14.90;;;22.60;90.80;;;;;;5051075;28;20021;-65
2021/07/23 08:05:09;;;;;;;22.55;14.57;;;22.60;90.70;;;;;;5051320;28;20027;-66
2021/07/23 08:07:35;;;;;;;22.77;15.48;;;22.70;90.30;;;;;;5050930;28;20124;-65
2021/07/23 08:10:05;;;;;;;22.42;14.48;;;22.80;89.20;;;;;;5051432;28;20037;-66
2021/07/23 08:12:31;;;;;;;23.60;15.77;;;22.90;88.80;;;;;;5050977;28;20462;-66
2021/07/23 08:14:57;;;;;;;19.50;13.48;;;23.00;89.20;;;;;;5051247;28;20104;-66
2021/07/23 08:17:24;;;;;;;21.75;14.05;;;23.00;86.80;;;;;;5050345;28;20040;-67
2021/07/23 08:19:50;;;;;;;25.67;15.25;;;23.10;85.90;;;;;;5051585;28;20025;-66
2021/07/23 08:22:17;;;;;;;18.50;13.20;;;23.30;84.10;;;;;;5051202;28;20033;-66
2021/07/23 08:24:43;;;;;;;21.13;14.55;;;23.30;84.20;;;;;;5050593;28;20221;-66
2021/07/23 08:27:08;;;;;;;20.35;14.45;;;23.50;82.50;;;;;;5051519;28;20056;-65
2021/07/23 08:29:34;;;;;;;20.88;14.02;;;23.60;82.30;;;;;;5063384;28;20064;-66
2021/07/23 08:32:08;;;;;;;20.90;14.30;;;23.70;80.10;;;;;;5059602;28;20123;-66
2021/07/23 08:34:34;;;;;;;18.98;14.32;;;23.70;79.50;;;;;;5050296;28;20029;-66
2021/07/23 08:36:59;;;;;;;22.40;14.80;;;23.60;79.70;;;;;;5050918;28;20041;-65
2021/07/23 08:39:25;;;;;;;22.73;14.90;;;23.70;80.40;;;;;;5050085;28;20169;-67
2021/07/23 08:41:51;;;;;;;21.52;13.65;;;23.80;81.50;;;;;;5051030;28;20036;-66
2021/07/23 08:44:16;;;;;;;22.20;15.02;;;24.00;79.60;;;;;;5050784;28;20368;-66
2021/07/23 08:46:42;;;;;;;24.20;14.80;;;24.10;77.90;;;;;;5049378;28;20029;-66
2021/07/23 08:49:08;;;;;;;18.98;13.63;;;24.20;77.60;;;;;;5050512;28;20056;-66
2021/07/23 08:51:34;;;;;;;23.02;12.75;;;24.30;77.40;;;;;;5049223;28;20104;-66
2021/07/23 08:54:00;;;;;;;21.52;13.93;;;24.30;77.40;;;;;;5050808;28;20055;-66
2021/07/23 08:56:25;;;;;;;18.42;12.15;;;24.40;75.60;;;;;;5049699;28;20060;-67
2021/07/23 08:58:51;;;;;;;17.40;12.70;;;24.50;74.80;;;;;;5050051;28;20029;-66
2021/07/23 09:01:16;;;;;;;16.60;12.23;;;24.60;74.10;;;;;;5050550;28;20095;-66
2021/07/23 09:03:42;;;;;;;17.48;13.15;;;24.70;74.00;;;;;;5049730;28;20027;-66
2021/07/23 09:06:18;;;;;;;22.08;12.98;;;24.80;73.30;;;;;;5050444;28;20142;-66
2021/07/23 09:08:48;;;;;;;17.25;11.95;;;24.90;72.60;;;;;;5050021;28;20025;-66
2021/07/23 09:11:13;;;;;;;21.10;13.15;;;24.90;72.60;;;;;;5050330;28;20029;-67
2021/07/23 09:13:39;;;;;;;26.58;13.32;;;24.90;72.50;;;;;;5049868;28;20021;-67
2021/07/23 09:16:25;;;;;;;22.45;11.95;;;25.00;72.80;;;;;;5049070;28;20029;-66
2021/07/23 09:19:08;;;;;;;17.08;11.52;;;25.10;72.20;;;;;;5050700;28;20041;-66
2021/07/23 09:21:38;;;;;;;23.60;12.00;;;25.30;71.40;;;;;;5049847;28;20025;-66
2021/07/23 09:24:06;;;;;;;19.17;12.50;;;25.50;70.10;;;;;;5050653;28;20025;-66
2021/07/23 09:26:46;;;;;;;18.95;11.63;;;25.60;69.40;;;;;;5049698;28;20040;-67
2021/07/23 09:29:12;;;;;;;17.23;11.85;;;25.60;69.20;;;;;;5050550;28;20037;-66
2021/07/23 09:31:37;;;;;;;20.98;12.50;;;25.60;69.30;;;;;;5049232;28;20029;-67
2021/07/23 09:34:04;;;;;;;16.77;11.98;;;25.70;68.60;;;;;;5050840;28;20463;-66
2021/07/23 09:36:31;;;;;;;20.02;11.73;;;25.80;68.90;;;;;;5049720;28;20040;-67
2021/07/23 09:39:06;;;;;;;15.23;11.05;;;26.00;67.60;;;;;;5050719;28;20048;-67
2021/07/23 09:41:34;;;;;;;15.65;10.38;;;26.10;66.90;;;;;;5049635;28;20025;-67
2021/07/23 09:44:01;;;;;;;15.77;10.35;;;26.30;65.40;;;;;;5050683;28;20482;-67
2021/07/23 09:46:30;;;;;;;18.40;11.48;;;26.50;65.00;;;;;;5049268;28;20516;-67
2021/07/23 09:48:57;;;;;;;20.60;12.10;;;26.60;64.70;;;;;;5050496;28;20044;-66
2021/07/23 09:51:25;;;;;;;14.38;10.50;;;26.70;63.50;;;;;;5050388;28;20029;-68
2021/07/23 09:53:52;;;;;;;16.75;10.20;;;26.70;63.60;;;;;;5050111;28;20028;-67
2021/07/23 09:56:18;;;;;;;12.52;9.68;;;26.80;63.20;;;;;;5050583;28;20057;-66
2021/07/23 09:58:54;;;;;;;14.68;10.55;;;26.80;62.20;;;;;;5049368;28;20025;-67
2021/07/23 10:01:22;;;;;;;21.58;11.68;;;26.90;62.10;;;;;;5050115;28;20029;-67
2021/07/23 10:03:50;;;;;;;14.30;10.43;;;27.00;62.40;;;;;;5049465;28;20045;-67
2021/07/23 10:06:34;;;;;;;19.48;10.38;;;27.00;62.60;;;;;;5042191;28;20474;-67
2021/07/23 10:09:09;;;;;;;15.73;11.02;;;27.10;62.20;;;;;;5048958;28;20047;-67
2021/07/23 10:11:35;;;;;;;15.43;10.55;;;27.10;61.20;;;;;;5044594;28;20033;-67
2021/07/23 10:14:03;;;;;;;14.18;10.98;;;27.20;61.80;;;;;;5054003;28;20028;-67
2021/07/23 10:16:31;;;;;;;18.33;11.57;;;27.30;61.70;;;;;;5052831;28;20035;-67
2021/07/23 10:18:58;;;;;;;19.20;11.95;;;27.30;61.60;;;;;;5053475;28;20041;-67
2021/07/23 10:21:24;;;;;;;18.15;11.30;;;27.20;60.60;;;;;;5053674;28;20108;-67
2021/07/23 10:23:50;;;;;;;12.57;10.30;;;27.20;60.70;;;;;;5053218;28;20096;-67
2021/07/23 10:26:18;;;;;;;11.88;10.35;;;27.20;60.80;;;;;;5046022;28;20040;-66
2021/07/23 10:28:43;;;;;;;13.82;10.38;;;27.40;61.40;;;;;;5052776;28;20037;-66
2021/07/23 10:31:21;;;;;;;14.23;10.93;;;27.40;60.90;;;;;;5053716;28;20029;-67
2021/07/23 10:33:59;;;;;;;14.55;10.40;;;27.60;60.40;;;;;;5052441;28;20029;-67
2021/07/23 10:36:30;;;;;;;12.85;9.77;;;27.80;61.00;;;;;;5052902;28;20033;-68
2021/07/23 10:39:05;;;;;;;12.60;9.80;;;28.00;59.80;;;;;;5053423;28;20021;-67
2021/07/23 10:42:02;;;;;;;15.10;10.50;;;28.20;60.20;;;;;;5052753;28;20107;-67
2021/07/23 10:44:28;;;;;;;11.75;9.35;;;28.30;58.30;;;;;;5041971;28;20048;-67
2021/07/23 10:46:56;;;;;;;13.00;10.07;;;28.40;58.50;;;;;;5053368;28;20037;-67
2021/07/23 10:49:24;;;;;;;13.48;10.18;;;28.50;58.20;;;;;;5052947;28;20508;-67
2021/07/23 10:51:52;;;;;;;16.75;10.15;;;28.60;56.70;;;;;;5053009;28;20107;-67
2021/07/23 10:54:25;;;;;;;16.27;10.48;;;28.70;57.30;;;;;;5052474;28;20798;-67
2021/07/23 10:57:00;;;;;;;21.85;10.75;;;28.70;56.40;;;;;;5053126;28;20041;-67
2021/07/23 10:59:41;;;;;;;15.05;9.80;;;28.80;56.90;;;;;;5052685;28;20021;-68
2021/07/23 11:02:16;;;;;;;14.98;10.85;;;28.80;56.70;;;;;;5052827;28;20029;-66
2021/07/23 11:04:43;;;;;;;15.93;10.95;;;28.60;57.00;;;;;;5052028;28;20029;-67
2021/07/23 11:07:10;;;;;;;14.02;10.68;;;28.40;56.50;;;;;;5053167;28;20102;-66
2021/07/23 11:09:36;;;;;;;12.63;11.13;;;28.40;57.50;;;;;;5052022;28;20496;-67
2021/07/23 11:12:18;;;;;;;16.92;11.02;;;28.50;56.60;;;;;;5053057;28;20044;-66
2021/07/23 11:15:00;;;;;;;17.88;10.43;;;28.40;57.80;;;;;;5052207;28;20048;-67
2021/07/23 11:17:29;;;;;;;13.48;10.20;;;28.30;57.00;;;;;;5046874;28;20045;-67
2021/07/23 11:20:02;;;;;;;12.95;10.40;;;28.40;57.50;;;;;;5052630;28;20056;-66
2021/07/23 11:22:32;;;;;;;14.50;10.05;;;28.60;56.20;;;;;;5052250;28;20100;-67
2021/07/23 11:25:05;;;;;;;18.38;10.48;;;28.80;55.90;;;;;;5053070;28;20025;-67
2021/07/23 11:27:42;;;;;;;12.35;10.02;;;29.00;55.20;;;;;;5052527;28;20433;-67
2021/07/23 11:30:20;;;;;;;14.73;9.65;;;29.20;55.30;;;;;;5052622;28;20040;-66
2021/07/23 11:32:57;;;;;;;22.05;10.23;;;29.40;55.10;;;;;;5052062;28;20033;-66
2021/07/23 11:35:26;;;;;;;14.55;9.10;;;29.70;54.80;;;;;;5052185;28;20033;-66
2021/07/23 11:37:53;;;;;;;19.52;10.23;;;30.10;54.00;;;;;;5052115;28;20033;-66
2021/07/23 11:40:20;;;;;;;15.40;10.45;;;30.40;53.10;;;;;;5051920;28;20029;-66
2021/07/23 11:42:50;;;;;;;14.40;10.20;;;30.50;53.20;;;;;;5051476;28;20080;-66
2021/07/23 11:45:18;;;;;;;11.40;9.32;;;30.60;52.10;;;;;;5060663;28;20028;-66
2021/07/23 11:47:50;;;;;;;13.35;9.93;;;30.70;52.00;;;;;;5043625;28;20078;-66
2021/07/23 11:50:20;;;;;;;12.20;10.90;;;30.70;52.30;;;;;;5052278;28;20378;-66
2021/07/23 11:52:50;;;;;;;11.95;10.38;;;30.60;51.90;;;;;;5051092;28;20049;-66
2021/07/23 11:55:17;;;;;;;11.82;9.95;;;30.20;52.70;;;;;;5051840;28;20053;-66
2021/07/23 11:57:48;;;;;;;14.52;9.48;;;30.30;52.40;;;;;;5050846;28;20041;-66
2021/07/23 12:00:19;;;;;;;15.32;11.75;;;30.20;53.10;;;;;;5050972;28;20238;-66
2021/07/23 12:02:45;;;;;;;15.30;10.32;;;29.80;53.40;;;;;;5050664;28;20383;-66
2021/07/23 12:05:12;;;;;;;11.95;9.38;;;29.30;55.40;;;;;;5051118;28;20056;-66
2021/07/23 12:07:39;;;;;;;14.52;10.63;;;29.20;55.80;;;;;;5050828;28;20368;-66
2021/07/23 12:10:10;;;;;;;12.07;10.23;;;29.40;54.50;;;;;;5051074;28;20028;-66
2021/07/23 12:12:37;;;;;;;12.05;10.48;;;29.80;54.50;;;;;;5050792;28;20439;-66
2021/07/23 12:15:03;;;;;;;11.27;10.10;;;30.30;53.20;;;;;;5051073;28;20035;-66
2021/07/23 12:17:30;;;;;;;11.07;9.98;;;30.60;52.40;;;;;;5051035;28;20033;-68
2021/07/23 12:19:56;;;;;;;16.08;9.95;;;30.90;51.30;;;;;;5050656;28;20478;-66
2021/07/23 12:22:22;;;;;;;13.93;10.32;;;31.10;49.80;;;;;;5050863;28;20033;-67
2021/07/23 12:24:48;;;;;;;16.17;9.82;;;31.40;49.20;;;;;;5051785;28;20033;-66
2021/07/23 12:27:16;;;;;;;14.68;11.20;;;31.70;50.30;;;;;;5050525;28;20497;-66
2021/07/23 12:29:41;;;;;;;16.30;10.60;;;32.10;47.80;;;;;;5049409;28;20114;-67